Helene — V7VF9 — position and weather

sailwx.info

Track history (hours):
 
Tides and Currents Weather Stations Pressure Air Temp Water Temp Dewpoint Dewpoint Depression Visibility Wind Speed Wind Dir Waves Ship Positions

Helene

Last reported at 2014-Nov-22 21:33 UTC. Time now 2014-Nov-24 09:32 UTC.
Position N 25°39' W 079°38'.

Length 207 m; draft 9.2 m.

Type: Cargo ship. MMSI: 538090420.

Date/timePositionNaut miles runAvg speedWind from/ knotsBaromVisibWave heightAir tempDewpointWater temp
2014-Nov-22 21:33N 25°39' W 079°38'1919.0
2014-Nov-22 20:33N 25°58' W 079°35'1919.1
2014-Nov-22 19:33N 26°17' W 079°32'1919.4
2014-Nov-22 18:33N 26°36' W 079°29'78819.2
2014-Nov-21 01:33N 39°16' W 075°21'1716.4
2014-Nov-21 00:33N 39°29' W 075°34'1211.7
2014-Nov-20 23:33N 39°41' W 075°31'3 2.5
2014-Nov-20 22:32N 39°43' W 075°31'0 0.0
2014-Nov-20 21:32N 39°43' W 075°31'0 0.0
2014-Nov-20 20:32N 39°43' W 075°31'0 0.0
2014-Nov-20 19:32N 39°43' W 075°31'0 0.0
2014-Nov-20 18:32N 39°43' W 075°31'0 0.0
2014-Nov-20 17:29N 39°43' W 075°31'0 0.0
2014-Nov-20 16:32N 39°43' W 075°31'0 0.0
2014-Nov-20 15:17N 39°43' W 075°31'0 0.0
2014-Nov-20 13:26N 39°43' W 075°31'0 0.0
2014-Nov-20 12:32N 39°43' W 075°31'0 0.0
2014-Nov-20 11:32N 39°43' W 075°31'0 0.0
2014-Nov-20 10:32N 39°43' W 075°31'0 0.0
2014-Nov-20 09:32N 39°43' W 075°31'0 0.0
2014-Nov-20 08:31N 39°43' W 075°31'0 0.0
2014-Nov-20 07:31N 39°43' W 075°31'0 0.0
2014-Nov-20 06:31N 39°43' W 075°31'0 0.0
2014-Nov-20 05:31N 39°43' W 075°31'0 0.0
2014-Nov-20 04:31N 39°43' W 075°31'0 0.0
2014-Nov-20 03:31N 39°43' W 075°31'0 0.0
2014-Nov-20 02:31N 39°43' W 075°31'0 0.0
2014-Nov-20 01:31N 39°43' W 075°31'0 0.0
2014-Nov-20 00:28N 39°43' W 075°31'0 0.0
2014-Nov-19 23:31N 39°43' W 075°31'0 0.0
2014-Nov-19 22:25N 39°43' W 075°31'0 0.0
2014-Nov-19 21:07N 39°43' W 075°31'0 0.0
2014-Nov-19 18:31N 39°43' W 075°31'0 0.0
2014-Nov-19 15:22N 39°43' W 075°31'0 0.0
2014-Nov-19 14:19N 39°43' W 075°31'0 0.0
2014-Nov-19 12:22N 39°43' W 075°31'0 0.0
2014-Nov-19 11:31N 39°43' W 075°31'0 0.0
2014-Nov-19 10:31N 39°43' W 075°31'0 0.0
2014-Nov-19 09:31N 39°43' W 075°31'0 0.0
2014-Nov-19 08:31N 39°43' W 075°31'0 0.0
2014-Nov-19 07:31N 39°43' W 075°31'0 0.0
2014-Nov-19 06:25N 39°43' W 075°31'0 0.0
2014-Nov-18 13:33N 39°43' W 075°31'0 0.0
2014-Nov-18 12:33N 39°43' W 075°31'0 0.0
2014-Nov-18 10:15N 39°43' W 075°31'0 0.0
2014-Nov-18 06:15N 39°43' W 075°31'0 0.0
2014-Nov-18 05:21N 39°43' W 075°31'0 0.0
2014-Nov-18 04:33N 39°43' W 075°31'0 0.0
2014-Nov-18 03:33N 39°43' W 075°31'0 0.0
2014-Nov-18 02:33N 39°43' W 075°31'0 0.0
2014-Nov-18 01:33N 39°43' W 075°31'0 0.0
2014-Nov-18 00:30N 39°43' W 075°31'0 0.0
2014-Nov-17 23:33N 39°43' W 075°31'0 0.0
2014-Nov-17 22:15N 39°43' W 075°31'0 0.0
2014-Nov-17 20:21N 39°43' W 075°31'0 0.0
2014-Nov-17 19:27N 39°43' W 075°31'0 0.0
2014-Nov-17 18:15N 39°43' W 075°31'0 0.0
2014-Nov-17 16:27N 39°43' W 075°31'0 0.0
2014-Nov-17 15:21N 39°43' W 075°31'0 0.0
2014-Nov-17 14:21N 39°43' W 075°31'0 0.0
2014-Nov-17 13:32N 39°43' W 075°31'1 0.9
2014-Nov-17 12:31N 39°43' W 075°30'0 0.0
2014-Nov-17 11:31N 39°43' W 075°30'0 0.2
2014-Nov-17 10:33N 39°43' W 075°30'7 7.2
2014-Nov-17 09:33N 39°36' W 075°34'1211.9
2014-Nov-17 08:33N 39°25' W 075°30'1312.5
2014-Nov-17 07:33N 39°15' W 075°20'  
2014-Nov-14 20:34N 26°43' W 079°44'1918.9
2014-Nov-14 19:33N 26°24' W 079°46'1918.8
2014-Nov-14 18:34N 26°05' W 079°49'1918.7
2014-Nov-14 17:34N 25°47' W 079°51'  
Track history (hours):
 
Tides and Currents Weather Stations Pressure Air Temp Water Temp Dewpoint Dewpoint Depression Visibility Wind Speed Wind Dir Waves Ship Positions

Helene

Last reported at 2014-Nov-22 21:33 UTC. Time now 2014-Nov-24 09:32 UTC.
Position N 25°39' W 079°38'.

Length 207 m; draft 9.2 m.

Type: Cargo ship. MMSI: 538090420.

Date/timePositionNaut miles runAvg speedWind from/ knotsBaromVisibWave heightAir tempDewpointWater temp
2014-Nov-22 21:33N 25°39' W 079°38'1919.0
2014-Nov-22 20:33N 25°58' W 079°35'1919.1
2014-Nov-22 19:33N 26°17' W 079°32'1919.4
2014-Nov-22 18:33N 26°36' W 079°29'78819.2
2014-Nov-21 01:33N 39°16' W 075°21'1716.4
2014-Nov-21 00:33N 39°29' W 075°34'1211.7
2014-Nov-20 23:33N 39°41' W 075°31'3 2.5
2014-Nov-20 22:32N 39°43' W 075°31'0 0.0
2014-Nov-20 21:32N 39°43' W 075°31'0 0.0
2014-Nov-20 20:32N 39°43' W 075°31'0 0.0
2014-Nov-20 19:32N 39°43' W 075°31'0 0.0
2014-Nov-20 18:32N 39°43' W 075°31'0 0.0
2014-Nov-20 17:29N 39°43' W 075°31'0 0.0
2014-Nov-20 16:32N 39°43' W 075°31'0 0.0
2014-Nov-20 15:17N 39°43' W 075°31'0 0.0
2014-Nov-20 13:26N 39°43' W 075°31'0 0.0
2014-Nov-20 12:32N 39°43' W 075°31'0 0.0
2014-Nov-20 11:32N 39°43' W 075°31'0 0.0
2014-Nov-20 10:32N 39°43' W 075°31'0 0.0
2014-Nov-20 09:32N 39°43' W 075°31'0 0.0
2014-Nov-20 08:31N 39°43' W 075°31'0 0.0
2014-Nov-20 07:31N 39°43' W 075°31'0 0.0
2014-Nov-20 06:31N 39°43' W 075°31'0 0.0
2014-Nov-20 05:31N 39°43' W 075°31'0 0.0
2014-Nov-20 04:31N 39°43' W 075°31'0 0.0
2014-Nov-20 03:31N 39°43' W 075°31'0 0.0
2014-Nov-20 02:31N 39°43' W 075°31'0 0.0
2014-Nov-20 01:31N 39°43' W 075°31'0 0.0
2014-Nov-20 00:28N 39°43' W 075°31'0 0.0
2014-Nov-19 23:31N 39°43' W 075°31'0 0.0
2014-Nov-19 22:25N 39°43' W 075°31'0 0.0
2014-Nov-19 21:07N 39°43' W 075°31'0 0.0
2014-Nov-19 18:31N 39°43' W 075°31'0 0.0
2014-Nov-19 15:22N 39°43' W 075°31'0 0.0
2014-Nov-19 14:19N 39°43' W 075°31'0 0.0
2014-Nov-19 12:22N 39°43' W 075°31'0 0.0
2014-Nov-19 11:31N 39°43' W 075°31'0 0.0
2014-Nov-19 10:31N 39°43' W 075°31'0 0.0
2014-Nov-19 09:31N 39°43' W 075°31'0 0.0
2014-Nov-19 08:31N 39°43' W 075°31'0 0.0
2014-Nov-19 07:31N 39°43' W 075°31'0 0.0
2014-Nov-19 06:25N 39°43' W 075°31'0 0.0
2014-Nov-18 13:33N 39°43' W 075°31'0 0.0
2014-Nov-18 12:33N 39°43' W 075°31'0 0.0
2014-Nov-18 10:15N 39°43' W 075°31'0 0.0
2014-Nov-18 06:15N 39°43' W 075°31'0 0.0
2014-Nov-18 05:21N 39°43' W 075°31'0 0.0
2014-Nov-18 04:33N 39°43' W 075°31'0 0.0
2014-Nov-18 03:33N 39°43' W 075°31'0 0.0
2014-Nov-18 02:33N 39°43' W 075°31'0 0.0
2014-Nov-18 01:33N 39°43' W 075°31'0 0.0
2014-Nov-18 00:30N 39°43' W 075°31'0 0.0
2014-Nov-17 23:33N 39°43' W 075°31'0 0.0
2014-Nov-17 22:15N 39°43' W 075°31'0 0.0
2014-Nov-17 20:21N 39°43' W 075°31'0 0.0
2014-Nov-17 19:27N 39°43' W 075°31'0 0.0
2014-Nov-17 18:15N 39°43' W 075°31'0 0.0
2014-Nov-17 16:27N 39°43' W 075°31'0 0.0
2014-Nov-17 15:21N 39°43' W 075°31'0 0.0
2014-Nov-17 14:21N 39°43' W 075°31'0 0.0
2014-Nov-17 13:32N 39°43' W 075°31'1 0.9
2014-Nov-17 12:31N 39°43' W 075°30'0 0.0
2014-Nov-17 11:31N 39°43' W 075°30'0 0.2
2014-Nov-17 10:33N 39°43' W 075°30'7 7.2
2014-Nov-17 09:33N 39°36' W 075°34'1211.9
2014-Nov-17 08:33N 39°25' W 075°30'1312.5
2014-Nov-17 07:33N 39°15' W 075°20'  
2014-Nov-14 20:34N 26°43' W 079°44'1918.9
2014-Nov-14 19:33N 26°24' W 079°46'1918.8
2014-Nov-14 18:34N 26°05' W 079°49'1918.7
2014-Nov-14 17:34N 25°47' W 079°51'  

Dump ship's entire track history